KSIK/SIK METAR and TAF weather

Enter ICAO airport designator
Station Type Date Time Source
KSIK METAR 2019/12/12 17:15 UTC NOAA

KSIK 121715Z AUTO 19005KT 10SM CLR 09/00 A3041 RMK AO2


Station Type Date Time Source
KSIK Decoded METAR 2019/12/12 17:15 UTC NOAA

Station name not available
Dec 12, 2019 - 12:15 PM EST / 2019.12.12 1715 UTC
Wind: from the S (190 degrees) at 6 MPH (5 KT):0
Visibility: 10 mile(s):0
Sky conditions: clear
Temperature: 48 F (9 C)
Dew Point: 32 F (0 C)
Relative Humidity: 53%
Pressure (altimeter): 30.41 in. Hg (1029 hPa)
ob: KSIK 121715Z AUTO 19005KT 10SM CLR 09/00 A3041 RMK AO2
cycle: 17

Station Type Date Time Source
KSIK TAF UTC NOAA

Error!

Example: see airport list